createdAt,value
2017-05-30T00:00:44.951Z,23.27
2017-05-30T00:01:46.521Z,23.26
2017-05-30T00:02:47.980Z,23.19
2017-05-30T00:03:49.440Z,23.15
2017-05-30T00:04:50.901Z,23.14
2017-05-30T00:05:52.370Z,23.15
2017-05-30T00:06:53.836Z,23.29
2017-05-30T00:07:55.294Z,23.19
2017-05-30T00:08:56.756Z,23.24
2017-05-30T00:09:58.220Z,23.34
2017-05-30T00:10:59.686Z,23.31
2017-05-30T00:12:01.147Z,23.38
2017-05-30T00:13:02.611Z,23.32
2017-05-30T00:14:04.087Z,23.39
2017-05-30T00:15:05.548Z,23.39
2017-05-30T00:16:07.062Z,23.46
2017-05-30T00:17:08.520Z,23.45
2017-05-30T00:18:09.983Z,23.55
2017-05-30T00:19:11.441Z,23.47
2017-05-30T00:20:12.900Z,23.62
2017-05-30T00:21:14.367Z,23.57
2017-05-30T00:22:15.832Z,23.61
2017-05-30T00:23:17.289Z,23.64
2017-05-30T00:24:18.745Z,23.64
2017-05-30T00:25:20.209Z,23.60
2017-05-30T00:26:21.672Z,23.67
2017-05-30T00:27:23.131Z,23.49
2017-05-30T00:28:24.595Z,23.45
2017-05-30T00:29:26.073Z,23.43
2017-05-30T00:30:27.530Z,23.57
2017-05-30T00:31:29.002Z,23.53
2017-05-30T00:32:30.460Z,23.45
2017-05-30T00:33:31.919Z,23.35
2017-05-30T00:34:33.378Z,23.38
2017-05-30T00:35:34.838Z,23.35
2017-05-30T00:36:36.309Z,23.42
2017-05-30T00:37:37.784Z,23.42
2017-05-30T00:38:39.239Z,23.42
2017-05-30T00:39:40.704Z,23.31
2017-05-30T00:40:42.167Z,23.26
2017-05-30T00:41:43.629Z,23.17
2017-05-30T00:42:45.091Z,23.22
2017-05-30T00:43:46.552Z,23.15
2017-05-30T00:44:48.014Z,23.19
2017-05-30T00:45:49.473Z,23.01
2017-05-30T00:46:50.938Z,23.07
2017-05-30T00:47:52.402Z,23.07
2017-05-30T00:48:53.863Z,22.99
2017-05-30T00:49:55.327Z,22.96
2017-05-30T00:50:56.788Z,22.92
2017-05-30T00:51:58.242Z,22.87
2017-05-30T00:52:59.704Z,22.82
2017-05-30T00:54:01.162Z,22.75
2017-05-30T00:55:02.629Z,22.80
2017-05-30T00:56:04.096Z,22.77
2017-05-30T00:57:05.559Z,22.67
2017-05-30T00:58:07.014Z,22.57
2017-05-30T00:59:08.478Z,22.62
2017-05-30T01:00:09.945Z,22.62
2017-05-30T01:01:11.415Z,22.54
2017-05-30T01:02:12.873Z,22.65
2017-05-30T01:03:14.339Z,22.65
2017-05-30T01:04:15.801Z,22.65
2017-05-30T01:05:17.264Z,22.50
2017-05-30T01:06:18.726Z,22.57
2017-05-30T01:07:20.195Z,22.56
2017-05-30T01:08:21.658Z,22.49
2017-05-30T01:09:23.119Z,22.39
2017-05-30T01:10:24.580Z,22.44
2017-05-30T01:11:26.048Z,22.44
2017-05-30T01:12:27.496Z,22.29
2017-05-30T01:13:28.958Z,22.29
2017-05-30T01:14:30.420Z,22.34
2017-05-30T01:15:31.875Z,22.20
2017-05-30T01:16:33.338Z,22.13
2017-05-30T01:17:34.797Z,22.22
2017-05-30T01:18:36.261Z,22.19
2017-05-30T01:19:37.725Z,22.16
2017-05-30T01:20:39.182Z,22.17
2017-05-30T01:21:40.637Z,22.20
2017-05-30T01:22:42.096Z,22.29
2017-05-30T01:23:43.556Z,22.31
2017-05-30T01:24:45.016Z,22.19
2017-05-30T01:25:46.482Z,22.20
2017-05-30T01:26:47.945Z,22.16
2017-05-30T01:27:49.404Z,22.16
2017-05-30T01:28:50.857Z,22.19
2017-05-30T01:29:52.329Z,22.17
2017-05-30T01:30:53.791Z,22.19
2017-05-30T01:31:55.262Z,22.23
2017-05-30T01:32:56.725Z,22.20
2017-05-30T01:33:58.191Z,22.19
2017-05-30T01:34:59.646Z,22.07
2017-05-30T01:36:01.105Z,22.02
2017-05-30T01:37:02.574Z,21.97
2017-05-30T01:38:04.032Z,22.13
2017-05-30T01:39:05.484Z,22.02
2017-05-30T01:40:06.950Z,22.01
2017-05-30T01:41:08.405Z,21.98
2017-05-30T01:42:09.859Z,22.01
2017-05-30T01:43:11.329Z,22.02
2017-05-30T01:44:12.803Z,22.04
2017-05-30T01:45:14.268Z,22.06
2017-05-30T01:46:15.735Z,22.01
2017-05-30T01:47:17.194Z,22.06
2017-05-30T01:48:18.647Z,22.01
2017-05-30T01:49:20.104Z,21.99
2017-05-30T01:50:21.563Z,22.07
2017-05-30T01:51:23.021Z,22.16
2017-05-30T01:52:24.482Z,22.13
2017-05-30T01:53:25.937Z,22.01
2017-05-30T01:54:27.395Z,22.12
2017-05-30T01:55:28.853Z,22.01
2017-05-30T01:56:30.310Z,22.09
2017-05-30T01:57:31.767Z,21.97
2017-05-30T01:58:33.219Z,22.02
2017-05-30T01:59:34.684Z,21.99
2017-05-30T02:00:36.142Z,22.06
2017-05-30T02:01:37.602Z,21.99
2017-05-30T02:02:39.060Z,22.04
2017-05-30T02:03:40.513Z,22.04
2017-05-30T02:04:41.976Z,22.02
2017-05-30T02:05:43.436Z,22.04
2017-05-30T02:06:44.892Z,21.98
2017-05-30T02:07:46.354Z,21.95
2017-05-30T02:08:47.815Z,21.98
2017-05-30T02:09:49.269Z,21.92
2017-05-30T02:10:50.727Z,21.92
2017-05-30T02:11:52.189Z,21.95
2017-05-30T02:12:53.651Z,21.95
2017-05-30T02:13:55.106Z,21.91
2017-05-30T02:14:56.566Z,21.95
2017-05-30T02:15:58.025Z,21.90
2017-05-30T02:16:59.492Z,21.94
2017-05-30T02:18:00.948Z,21.94
2017-05-30T02:19:02.404Z,21.94
2017-05-30T02:20:03.872Z,21.91
2017-05-30T02:21:05.329Z,21.95
2017-05-30T02:22:06.793Z,21.85
2017-05-30T02:23:08.252Z,21.78
2017-05-30T02:24:09.709Z,21.78
2017-05-30T02:25:11.165Z,21.69
2017-05-30T02:26:12.650Z,21.61
2017-05-30T02:27:14.111Z,21.50
2017-05-30T02:28:15.571Z,21.45
2017-05-30T02:29:17.031Z,21.36
2017-05-30T02:30:18.493Z,21.29
2017-05-30T02:31:19.951Z,21.21
2017-05-30T02:32:21.405Z,21.26
2017-05-30T02:33:22.860Z,21.20
2017-05-30T02:34:24.320Z,21.30
2017-05-30T02:35:25.780Z,21.21
2017-05-30T02:36:27.240Z,21.26
2017-05-30T02:37:28.699Z,21.24
2017-05-30T02:38:30.163Z,21.16
2017-05-30T02:39:31.623Z,21.20
2017-05-30T02:40:33.084Z,21.21
2017-05-30T02:41:34.536Z,21.04
2017-05-30T02:42:35.994Z,20.95
2017-05-30T02:43:37.459Z,20.96
2017-05-30T02:44:38.925Z,20.95
2017-05-30T02:45:40.385Z,20.87
2017-05-30T02:46:41.840Z,20.87
2017-05-30T02:47:43.300Z,20.83
2017-05-30T02:48:44.758Z,20.91
2017-05-30T02:49:46.221Z,20.93
2017-05-30T02:50:47.678Z,20.83
2017-05-30T02:51:49.134Z,20.86
2017-05-30T02:52:50.592Z,20.83
2017-05-30T02:53:52.065Z,20.86
2017-05-30T02:54:53.533Z,20.69
2017-05-30T02:55:54.994Z,20.62
2017-05-30T02:56:56.449Z,20.69
2017-05-30T02:57:57.913Z,20.74
2017-05-30T02:58:59.372Z,20.79
2017-05-30T03:00:00.834Z,20.87
2017-05-30T03:01:02.293Z,20.84
2017-05-30T03:02:03.751Z,20.86
2017-05-30T03:03:05.206Z,20.87
2017-05-30T03:04:06.677Z,20.89
2017-05-30T03:05:08.133Z,20.86
2017-05-30T03:06:09.599Z,20.87
2017-05-30T03:07:11.056Z,20.87
2017-05-30T03:08:12.510Z,20.86
2017-05-30T03:09:13.967Z,20.87
2017-05-30T03:10:15.425Z,20.86
2017-05-30T03:11:16.892Z,20.95
2017-05-30T03:12:18.352Z,20.93
2017-05-30T03:13:19.815Z,20.84
2017-05-30T03:14:21.273Z,20.91
2017-05-30T03:15:22.734Z,20.83
2017-05-30T03:16:24.194Z,20.86
2017-05-30T03:17:25.662Z,20.93
2017-05-30T03:18:27.122Z,20.81
2017-05-30T03:19:28.587Z,20.89
2017-05-30T03:20:30.049Z,20.98
2017-05-30T03:21:31.506Z,20.91
2017-05-30T03:22:32.963Z,21.06
2017-05-30T03:23:34.419Z,20.95
2017-05-30T03:24:35.897Z,20.95
2017-05-30T03:25:37.360Z,20.98
2017-05-30T03:26:38.822Z,20.95
2017-05-30T03:27:40.286Z,20.89
2017-05-30T03:28:41.784Z,20.93
2017-05-30T03:29:43.243Z,20.99
2017-05-30T03:30:44.705Z,20.96
2017-05-30T03:31:46.161Z,20.98
2017-05-30T03:32:47.632Z,20.87
2017-05-30T03:33:49.095Z,20.79
2017-05-30T03:34:50.559Z,20.74
2017-05-30T03:35:52.017Z,20.65
2017-05-30T03:36:53.483Z,20.54
2017-05-30T03:37:54.947Z,20.62
2017-05-30T03:38:56.409Z,20.59
2017-05-30T03:39:57.871Z,20.51
2017-05-30T03:40:59.336Z,20.54
2017-05-30T03:42:00.799Z,20.51
2017-05-30T03:43:02.255Z,20.49
2017-05-30T03:44:03.714Z,20.33
2017-05-30T03:45:05.186Z,20.39
2017-05-30T03:46:06.648Z,20.34
2017-05-30T03:47:08.106Z,20.33
2017-05-30T03:48:09.570Z,20.41
2017-05-30T03:49:11.034Z,20.43
2017-05-30T03:50:12.504Z,20.43
2017-05-30T03:51:13.964Z,20.42
2017-05-30T03:52:15.424Z,20.33
2017-05-30T03:53:16.883Z,20.31
2017-05-30T03:54:18.347Z,20.28
2017-05-30T03:55:19.820Z,20.21
2017-05-30T03:56:21.292Z,20.28
2017-05-30T03:57:22.749Z,20.23
2017-05-30T03:58:24.209Z,20.16
2017-05-30T03:59:25.671Z,20.09
2017-05-30T04:00:27.131Z,20.09
2017-05-30T04:01:28.588Z,20.18
2017-05-30T04:02:30.054Z,20.20
2017-05-30T04:03:31.524Z,20.23
2017-05-30T04:04:32.984Z,20.38
2017-05-30T04:05:34.452Z,20.42
2017-05-30T04:06:35.911Z,20.30
2017-05-30T04:07:37.368Z,20.27
2017-05-30T04:08:38.831Z,20.47
2017-05-30T04:09:40.300Z,20.42
2017-05-30T04:10:41.758Z,20.39
2017-05-30T04:11:43.218Z,20.31
2017-05-30T04:12:44.677Z,20.41
2017-05-30T04:13:46.137Z,20.30
2017-05-30T04:14:47.599Z,20.31
2017-05-30T04:15:49.063Z,20.43
2017-05-30T04:16:50.525Z,20.42
2017-05-30T04:17:51.986Z,20.47
2017-05-30T04:18:53.448Z,20.39
2017-05-30T04:19:54.908Z,20.38
2017-05-30T04:20:56.371Z,20.35
2017-05-30T04:21:57.827Z,20.42
2017-05-30T04:22:59.287Z,20.43
2017-05-30T04:24:00.750Z,20.42
2017-05-30T04:25:02.213Z,20.53
2017-05-30T04:26:03.682Z,20.54
2017-05-30T04:27:05.134Z,20.51
2017-05-30T04:28:06.601Z,20.62
2017-05-30T04:29:08.062Z,20.62
2017-05-30T04:30:09.545Z,20.62
2017-05-30T04:31:11.009Z,20.72
2017-05-30T04:32:12.478Z,20.71
2017-05-30T04:33:13.934Z,20.76
2017-05-30T04:34:15.396Z,20.76
2017-05-30T04:35:16.857Z,20.74
2017-05-30T04:36:18.321Z,20.66
2017-05-30T04:37:19.782Z,20.66
2017-05-30T04:38:21.251Z,20.77
2017-05-30T04:39:22.718Z,20.72
2017-05-30T04:40:24.179Z,20.68
2017-05-30T04:41:25.638Z,20.61
2017-05-30T04:42:27.097Z,20.66
2017-05-30T04:43:28.566Z,20.69
2017-05-30T04:44:30.029Z,20.81
2017-05-30T04:45:31.495Z,20.83
2017-05-30T04:46:32.963Z,20.93
2017-05-30T04:47:34.421Z,20.96
2017-05-30T04:48:35.884Z,21.02
2017-05-30T04:49:37.351Z,21.08
2017-05-30T04:50:38.820Z,21.05
2017-05-30T04:51:40.288Z,21.06
2017-05-30T04:52:41.755Z,21.19
2017-05-30T04:53:43.211Z,21.26
2017-05-30T04:54:44.684Z,21.32
2017-05-30T04:55:46.155Z,21.35
2017-05-30T04:56:47.613Z,21.23
2017-05-30T04:57:49.074Z,21.24
2017-05-30T04:58:50.540Z,21.29
2017-05-30T04:59:52.005Z,21.39
2017-05-30T05:00:53.471Z,21.44
2017-05-30T05:01:54.934Z,21.50
2017-05-30T05:02:56.397Z,21.45
2017-05-30T05:03:57.861Z,21.59
2017-05-30T05:04:59.326Z,21.69
2017-05-30T05:06:00.801Z,21.60
2017-05-30T05:07:02.270Z,21.64
2017-05-30T05:08:03.775Z,21.66
2017-05-30T05:09:05.257Z,21.44
2017-05-30T05:10:06.728Z,21.63
2017-05-30T05:11:08.194Z,21.63
2017-05-30T05:12:09.654Z,21.66
2017-05-30T05:13:11.119Z,21.71
2017-05-30T05:14:12.588Z,21.59
2017-05-30T05:15:14.058Z,21.74
2017-05-30T05:16:15.539Z,21.92
2017-05-30T05:17:17.008Z,21.83
2017-05-30T05:18:18.472Z,21.74
2017-05-30T05:19:19.943Z,22.10
2017-05-30T05:20:21.408Z,22.29
2017-05-30T05:21:22.872Z,22.27
2017-05-30T05:22:24.338Z,22.53
2017-05-30T05:23:25.806Z,22.37
2017-05-30T05:24:27.267Z,22.09
2017-05-30T05:25:28.734Z,22.31
2017-05-30T05:26:30.214Z,22.54
2017-05-30T05:27:31.681Z,22.57
2017-05-30T05:28:33.145Z,22.52
2017-05-30T05:29:34.616Z,22.54
2017-05-30T05:30:36.082Z,22.78
2017-05-30T05:31:37.545Z,22.96
2017-05-30T05:32:39.008Z,22.94
2017-05-30T05:33:40.477Z,23.07
2017-05-30T05:34:41.954Z,23.43
2017-05-30T05:35:43.428Z,23.77
2017-05-30T05:36:44.893Z,23.94
2017-05-30T05:37:46.360Z,23.95
2017-05-30T05:38:47.825Z,24.00
2017-05-30T05:39:49.293Z,24.27
2017-05-30T05:40:50.758Z,24.59
2017-05-30T05:41:52.222Z,25.12
2017-05-30T05:42:53.695Z,25.49
2017-05-30T05:43:55.173Z,25.25
2017-05-30T05:44:56.640Z,24.69
2017-05-30T05:45:58.103Z,24.35
2017-05-30T05:46:59.583Z,23.75
2017-05-30T05:48:01.048Z,23.64
2017-05-30T05:49:02.522Z,23.22
2017-05-30T05:50:03.998Z,23.07
2017-05-30T05:51:05.460Z,22.93
2017-05-30T05:52:06.955Z,22.69
2017-05-30T05:53:08.430Z,22.69
2017-05-30T05:54:09.897Z,22.65
2017-05-30T05:55:11.380Z,22.60
2017-05-30T05:56:12.855Z,22.50
2017-05-30T05:57:14.359Z,22.82
2017-05-30T05:58:15.829Z,22.82
2017-05-30T05:59:17.305Z,22.89
2017-05-30T06:00:18.772Z,23.04
2017-05-30T06:01:20.241Z,23.34
2017-05-30T06:02:21.706Z,23.62
2017-05-30T06:03:23.176Z,23.89
2017-05-30T06:04:24.644Z,24.19
2017-05-30T06:05:26.117Z,23.89
2017-05-30T06:06:27.589Z,24.01
2017-05-30T06:07:29.063Z,24.42
2017-05-30T06:08:30.538Z,25.01
2017-05-30T06:09:32.000Z,24.71
2017-05-30T06:10:33.472Z,24.79
2017-05-30T06:11:34.952Z,24.53
2017-05-30T06:12:36.446Z,24.92
2017-05-30T06:13:37.912Z,24.94
2017-05-30T06:14:39.412Z,25.10
2017-05-30T06:15:40.872Z,24.53
2017-05-30T06:16:42.371Z,24.54
2017-05-30T06:17:43.912Z,24.42
2017-05-30T06:18:45.385Z,24.54
2017-05-30T06:19:46.855Z,24.42
2017-05-30T06:20:48.328Z,24.47
2017-05-30T06:21:49.816Z,24.52
2017-05-30T06:22:51.287Z,24.54
2017-05-30T06:23:52.755Z,24.88
2017-05-30T06:24:54.229Z,25.07
2017-05-30T06:25:55.710Z,25.32
2017-05-30T06:26:57.190Z,25.67
2017-05-30T06:27:58.659Z,25.86
2017-05-30T06:29:00.129Z,25.69
2017-05-30T06:30:01.615Z,25.52
2017-05-30T06:31:03.086Z,25.38
2017-05-30T06:32:04.567Z,25.31
2017-05-30T06:33:06.039Z,25.13
2017-05-30T06:34:07.516Z,25.00
2017-05-30T06:35:08.988Z,24.77
2017-05-30T06:36:10.478Z,25.32
2017-05-30T06:37:11.948Z,25.43
2017-05-30T06:38:13.416Z,25.28
2017-05-30T06:39:14.895Z,25.87
2017-05-30T06:40:16.377Z,25.64
2017-05-30T06:41:17.839Z,25.83
2017-05-30T06:42:19.317Z,25.91
2017-05-30T06:43:20.801Z,25.82
2017-05-30T06:44:22.273Z,26.04
2017-05-30T06:45:23.745Z,26.27
2017-05-30T06:46:25.213Z,26.52
2017-05-30T06:47:26.694Z,27.10
2017-05-30T06:48:28.172Z,27.98
2017-05-30T06:49:29.644Z,27.48
2017-05-30T06:50:31.123Z,27.04
2017-05-30T06:51:32.595Z,27.01
2017-05-30T06:52:34.068Z,26.83
2017-05-30T06:53:35.557Z,26.77
2017-05-30T06:54:37.035Z,27.01
2017-05-30T06:55:38.505Z,26.99
2017-05-30T06:56:39.983Z,26.50
2017-05-30T06:57:41.455Z,26.59
2017-05-30T06:58:42.930Z,26.27
2017-05-30T06:59:44.412Z,25.77
2017-05-30T07:00:45.895Z,25.64
2017-05-30T07:01:47.376Z,25.71
2017-05-30T07:02:48.850Z,25.53
2017-05-30T07:03:50.378Z,25.27
2017-05-30T07:04:51.794Z,25.13
2017-05-30T07:05:53.267Z,24.77
2017-05-30T07:06:54.740Z,24.80
2017-05-30T07:07:56.217Z,24.73
2017-05-30T07:08:57.693Z,24.87
2017-05-30T07:09:59.167Z,24.67
2017-05-30T07:11:00.643Z,24.75
2017-05-30T07:12:02.135Z,24.68
2017-05-30T07:13:03.612Z,24.90
2017-05-30T07:14:05.080Z,24.90
2017-05-30T07:15:06.557Z,24.67
2017-05-30T07:16:08.039Z,24.38
2017-05-30T07:17:09.515Z,24.34
2017-05-30T07:18:10.994Z,24.42
2017-05-30T07:19:12.465Z,24.37
2017-05-30T07:20:13.933Z,24.17
2017-05-30T07:21:15.417Z,24.05
2017-05-30T07:22:16.912Z,24.19
2017-05-30T07:23:18.449Z,24.14
2017-05-30T07:24:19.929Z,24.20
2017-05-30T07:25:21.419Z,24.20
2017-05-30T07:26:22.900Z,24.16
2017-05-30T07:27:24.376Z,24.38
2017-05-30T07:28:25.848Z,24.38
2017-05-30T07:29:27.322Z,24.50
2017-05-30T07:30:28.819Z,24.75
2017-05-30T07:31:30.303Z,24.57
2017-05-30T07:32:31.768Z,24.60
2017-05-30T07:33:33.240Z,24.47
2017-05-30T07:34:34.729Z,24.47
2017-05-30T07:35:36.200Z,24.39
2017-05-30T07:36:37.674Z,24.26
2017-05-30T07:37:39.149Z,24.37
2017-05-30T07:38:40.619Z,24.07
2017-05-30T07:39:42.093Z,24.13
2017-05-30T07:40:43.562Z,24.26
2017-05-30T07:41:45.044Z,24.61
2017-05-30T07:42:46.518Z,24.69
2017-05-30T07:43:47.995Z,24.61
2017-05-30T07:44:49.479Z,24.57
2017-05-30T07:45:50.955Z,25.13
2017-05-30T07:46:52.426Z,25.87
2017-05-30T07:47:53.914Z,25.89
2017-05-30T07:48:55.391Z,25.98
2017-05-30T07:49:56.865Z,25.98
2017-05-30T07:50:58.341Z,26.27
2017-05-30T07:51:59.823Z,26.96
2017-05-30T07:53:01.304Z,27.14
2017-05-30T07:54:02.779Z,27.64
2017-05-30T07:55:04.248Z,27.19
2017-05-30T07:56:05.732Z,27.58
2017-05-30T07:57:07.204Z,27.69
2017-05-30T07:58:08.679Z,28.01
2017-05-30T07:59:10.152Z,28.11
2017-05-30T08:00:11.633Z,27.79
2017-05-30T08:01:13.106Z,28.01
2017-05-30T08:02:14.578Z,28.60
2017-05-30T08:03:16.058Z,28.44
2017-05-30T08:04:17.542Z,28.81
2017-05-30T08:05:19.019Z,29.29
2017-05-30T08:06:20.551Z,29.28
2017-05-30T08:07:22.043Z,28.26
2017-05-30T08:08:23.564Z,28.68
2017-05-30T08:09:25.037Z,29.50
2017-05-30T08:10:26.515Z,28.63
2017-05-30T08:11:27.998Z,28.88
2017-05-30T08:12:29.478Z,28.69
2017-05-30T08:13:30.952Z,29.55
2017-05-30T08:14:32.625Z,30.09
2017-05-30T08:15:34.103Z,29.55
2017-05-30T08:16:35.582Z,29.90
2017-05-30T08:17:37.070Z,29.57
2017-05-30T08:18:38.536Z,29.10
2017-05-30T08:19:40.015Z,29.65
2017-05-30T08:20:41.510Z,29.82
2017-05-30T08:21:42.994Z,29.53
2017-05-30T08:22:44.486Z,29.97
2017-05-30T08:23:45.981Z,31.13
2017-05-30T08:24:47.466Z,31.02
2017-05-30T08:25:48.962Z,30.61
2017-05-30T08:26:50.446Z,30.43
2017-05-30T08:27:51.975Z,29.66
2017-05-30T08:28:53.458Z,29.63
2017-05-30T08:29:54.951Z,29.29
2017-05-30T08:30:56.462Z,29.52
2017-05-30T08:31:57.980Z,29.89
2017-05-30T08:32:59.471Z,29.62
2017-05-30T08:34:00.950Z,29.10
2017-05-30T08:35:02.439Z,29.10
2017-05-30T08:36:04.037Z,29.07
2017-05-30T08:37:05.536Z,29.22
2017-05-30T08:38:07.019Z,28.85
2017-05-30T08:39:08.507Z,29.38
2017-05-30T08:40:09.998Z,29.52
2017-05-30T08:41:11.477Z,30.31
2017-05-30T08:42:12.967Z,29.23
2017-05-30T08:43:14.448Z,29.84
2017-05-30T08:44:15.940Z,30.00
2017-05-30T08:45:17.522Z,30.61
2017-05-30T08:46:19.007Z,30.33
2017-05-30T08:47:20.484Z,30.71
2017-05-30T08:48:21.967Z,31.05
2017-05-30T08:49:23.509Z,30.94
2017-05-30T08:50:24.998Z,30.49
2017-05-30T08:51:26.477Z,30.29
2017-05-30T08:52:27.960Z,31.05
2017-05-30T08:53:29.444Z,30.80
2017-05-30T08:54:30.930Z,30.34
2017-05-30T08:55:32.410Z,30.40
2017-05-30T08:56:33.899Z,30.40
2017-05-30T08:57:35.378Z,30.61
2017-05-30T08:58:36.854Z,30.26
2017-05-30T08:59:38.339Z,30.99
2017-05-30T09:00:39.814Z,31.42
2017-05-30T09:01:41.295Z,31.72
2017-05-30T09:02:42.779Z,32.05
2017-05-30T09:03:44.257Z,32.44
2017-05-30T09:04:45.746Z,33.51
2017-05-30T09:05:47.223Z,33.46
2017-05-30T09:06:48.713Z,32.48
2017-05-30T09:07:50.192Z,33.82
2017-05-30T09:08:51.672Z,34.05
2017-05-30T09:09:53.162Z,34.00
2017-05-30T09:10:54.655Z,34.57
2017-05-30T09:11:56.143Z,34.23
2017-05-30T09:12:57.627Z,34.77
2017-05-30T09:13:59.115Z,34.86
2017-05-30T09:15:00.596Z,34.20
2017-05-30T09:16:02.077Z,33.86
2017-05-30T09:17:03.561Z,33.26
2017-05-30T09:18:05.047Z,32.03
2017-05-30T09:19:06.535Z,31.98
2017-05-30T09:20:08.025Z,32.35
2017-05-30T09:21:09.510Z,32.10
2017-05-30T09:22:10.996Z,30.83
2017-05-30T09:23:12.488Z,31.95
2017-05-30T09:24:13.978Z,32.15
2017-05-30T09:25:15.468Z,30.99
2017-05-30T09:26:16.954Z,31.39
2017-05-30T09:27:18.431Z,32.36
2017-05-30T09:28:19.922Z,31.91
2017-05-30T09:29:21.397Z,32.70
2017-05-30T09:30:22.874Z,32.67
2017-05-30T09:31:24.361Z,32.43
2017-05-30T09:32:25.860Z,32.92
2017-05-30T09:33:27.360Z,33.14
2017-05-30T09:34:28.839Z,32.43
2017-05-30T09:35:30.320Z,32.43
2017-05-30T09:36:31.807Z,32.71
2017-05-30T09:37:33.292Z,32.70
2017-05-30T09:38:34.774Z,31.49
2017-05-30T09:39:36.260Z,30.52
2017-05-30T09:40:37.750Z,29.41
2017-05-30T09:41:39.240Z,29.50
2017-05-30T09:42:40.731Z,29.75
2017-05-30T09:43:42.210Z,29.15
2017-05-30T09:44:43.700Z,29.99
2017-05-30T09:45:45.186Z,30.71
2017-05-30T09:46:46.667Z,30.78
2017-05-30T09:47:48.156Z,31.20
2017-05-30T09:48:49.635Z,30.49
2017-05-30T09:49:51.109Z,29.87
2017-05-30T09:50:52.593Z,29.87
2017-05-30T09:51:54.075Z,29.34
2017-05-30T09:52:55.554Z,29.23
2017-05-30T09:53:57.036Z,28.91
2017-05-30T09:54:58.527Z,27.79
2017-05-30T09:56:00.012Z,29.07
2017-05-30T09:57:01.491Z,29.03
2017-05-30T09:58:02.966Z,29.11
2017-05-30T09:59:04.458Z,29.71
2017-05-30T10:00:05.937Z,29.66
2017-05-30T10:01:07.439Z,29.15
2017-05-30T10:02:08.916Z,28.51
2017-05-30T10:03:10.408Z,28.26
2017-05-30T10:04:11.886Z,28.58
2017-05-30T10:05:13.392Z,29.52
2017-05-30T10:06:14.890Z,29.90
2017-05-30T10:07:16.382Z,30.36
2017-05-30T10:08:17.882Z,30.62
2017-05-30T10:09:19.372Z,29.84
2017-05-30T10:10:20.842Z,29.00
2017-05-30T10:11:22.317Z,29.53
2017-05-30T10:12:23.795Z,29.04
2017-05-30T10:13:25.275Z,28.88
2017-05-30T10:14:26.755Z,28.96
2017-05-30T10:15:28.252Z,29.57
2017-05-30T10:16:29.740Z,30.02
2017-05-30T10:17:31.230Z,30.18
2017-05-30T10:18:32.707Z,29.59
2017-05-30T10:19:34.189Z,30.00
2017-05-30T10:20:35.673Z,30.15
2017-05-30T10:21:37.154Z,30.69
2017-05-30T10:22:38.625Z,30.89
2017-05-30T10:23:40.129Z,30.29
2017-05-30T10:24:41.602Z,29.70
2017-05-30T10:25:43.073Z,29.03
2017-05-30T10:26:44.566Z,28.26
2017-05-30T10:27:46.042Z,27.53
2017-05-30T10:28:47.533Z,27.13
2017-05-30T10:29:49.025Z,27.20
2017-05-30T10:30:50.502Z,26.72
2017-05-30T10:31:51.985Z,27.39
2017-05-30T10:32:53.479Z,28.03
2017-05-30T10:33:54.953Z,28.48
2017-05-30T10:34:56.435Z,28.26
2017-05-30T10:35:59.643Z,27.91
2017-05-30T10:37:01.129Z,27.71
2017-05-30T10:38:02.622Z,27.96
2017-05-30T10:39:04.105Z,28.70
2017-05-30T10:40:05.581Z,29.15
2017-05-30T10:41:07.064Z,30.00
2017-05-30T10:42:08.544Z,30.89
2017-05-30T10:43:10.026Z,31.54
2017-05-30T10:44:11.503Z,31.75
2017-05-30T10:45:12.993Z,30.83
2017-05-30T10:46:14.469Z,30.84
2017-05-30T10:47:15.955Z,31.11
2017-05-30T10:48:17.457Z,30.57
2017-05-30T10:49:18.937Z,31.08
2017-05-30T10:50:20.425Z,30.69
2017-05-30T10:51:21.902Z,31.20
2017-05-30T10:52:23.385Z,30.62
2017-05-30T10:53:24.863Z,31.11
2017-05-30T10:54:26.395Z,31.09
2017-05-30T10:55:27.858Z,31.80
2017-05-30T10:56:29.342Z,32.29
2017-05-30T10:57:30.825Z,31.15
2017-05-30T10:58:32.347Z,31.54
2017-05-30T10:59:33.832Z,32.55
2017-05-30T11:00:35.321Z,32.10
2017-05-30T11:01:36.804Z,31.92
2017-05-30T11:02:38.283Z,31.55
2017-05-30T11:03:39.773Z,31.99
2017-05-30T11:04:41.251Z,31.67
2017-05-30T11:05:42.735Z,31.92
2017-05-30T11:06:44.228Z,33.30
2017-05-30T11:07:45.729Z,32.69
2017-05-30T11:08:47.203Z,32.24
2017-05-30T11:09:48.685Z,31.57
2017-05-30T11:10:50.176Z,30.71
2017-05-30T11:11:51.692Z,30.23
2017-05-30T11:12:53.143Z,30.40
2017-05-30T11:13:54.666Z,31.33
2017-05-30T11:14:56.160Z,32.55
2017-05-30T11:15:57.666Z,32.95
2017-05-30T11:16:59.136Z,33.29
2017-05-30T11:18:00.621Z,32.62
2017-05-30T11:19:02.117Z,31.50
2017-05-30T11:20:03.601Z,30.83
2017-05-30T11:21:05.087Z,30.87
2017-05-30T11:22:06.566Z,30.81
2017-05-30T11:23:08.050Z,30.38
2017-05-30T11:24:09.531Z,29.77
2017-05-30T11:25:11.021Z,29.52
2017-05-30T11:26:12.503Z,29.01
2017-05-30T11:27:14.014Z,28.96
2017-05-30T11:28:15.484Z,28.48
2017-05-30T11:29:16.961Z,28.23
2017-05-30T11:30:18.438Z,28.32
2017-05-30T11:31:19.918Z,28.26
2017-05-30T11:32:21.400Z,27.91
2017-05-30T11:33:22.887Z,27.88
2017-05-30T11:34:24.365Z,27.94
2017-05-30T11:35:25.842Z,28.03
2017-05-30T11:36:27.321Z,27.51
2017-05-30T11:37:28.799Z,27.38
2017-05-30T11:38:30.278Z,27.35
2017-05-30T11:39:31.751Z,27.41
2017-05-30T11:40:33.227Z,27.32
2017-05-30T11:41:34.708Z,27.29
2017-05-30T11:42:36.177Z,27.13
2017-05-30T11:44:39.622Z,27.29
2017-05-30T11:45:41.098Z,27.57
2017-05-30T11:46:42.583Z,28.19
2017-05-30T11:47:44.067Z,28.96
2017-05-30T11:48:45.547Z,30.19
2017-05-30T11:49:47.022Z,30.81
2017-05-30T11:50:48.500Z,30.86
2017-05-30T11:51:49.973Z,30.64
2017-05-30T11:52:51.444Z,30.40
2017-05-30T11:53:52.921Z,29.75
2017-05-30T11:54:54.402Z,29.49
2017-05-30T11:55:55.880Z,29.20
2017-05-30T11:56:57.366Z,28.77
2017-05-30T11:57:58.846Z,28.23
2017-05-30T11:59:00.323Z,27.86
2017-05-30T12:00:01.793Z,27.73
2017-05-30T12:01:03.272Z,27.74
2017-05-30T12:02:04.747Z,27.24
2017-05-30T12:03:06.229Z,26.50
2017-05-30T12:04:07.709Z,25.31
2017-05-30T12:05:09.201Z,24.01
2017-05-30T12:06:10.693Z,23.24
2017-05-30T12:07:12.195Z,22.94
2017-05-30T12:08:13.668Z,22.50
2017-05-30T12:09:15.138Z,22.04
2017-05-30T12:10:16.618Z,21.83
2017-05-30T12:11:18.088Z,21.63
2017-05-30T12:12:19.564Z,21.34
2017-05-30T12:13:21.024Z,21.23
2017-05-30T12:14:22.500Z,21.24
2017-05-30T12:15:23.964Z,21.23
2017-05-30T12:16:25.439Z,21.14
2017-05-30T12:17:26.910Z,21.06
2017-05-30T12:18:28.386Z,21.24
2017-05-30T12:19:29.857Z,21.29
2017-05-30T12:20:31.326Z,21.27
2017-05-30T12:21:32.835Z,21.32
2017-05-30T12:22:34.292Z,21.32
2017-05-30T12:23:35.766Z,21.42
2017-05-30T12:24:37.238Z,21.59
2017-05-30T12:25:38.712Z,21.72
2017-05-30T12:26:40.176Z,22.01
2017-05-30T12:27:41.650Z,22.29
2017-05-30T12:28:43.137Z,22.64
2017-05-30T12:29:44.600Z,22.80
2017-05-30T12:30:46.073Z,22.59
2017-05-30T12:31:47.558Z,22.49
2017-05-30T12:32:49.037Z,22.43
2017-05-30T12:33:50.504Z,22.35
2017-05-30T12:34:51.994Z,22.27
2017-05-30T12:35:53.500Z,22.35
2017-05-30T12:36:54.979Z,22.31
2017-05-30T12:37:56.448Z,22.35
2017-05-30T12:38:57.923Z,22.57
2017-05-30T12:39:59.462Z,22.60
2017-05-30T12:41:00.873Z,22.92
2017-05-30T12:42:02.360Z,23.08
2017-05-30T12:43:03.846Z,23.29
2017-05-30T12:44:05.337Z,23.39
2017-05-30T12:45:06.857Z,23.40
2017-05-30T12:46:08.332Z,23.43
2017-05-30T12:47:09.805Z,23.60
2017-05-30T12:48:11.271Z,23.77
2017-05-30T12:49:12.748Z,23.89
2017-05-30T12:50:14.221Z,23.82
2017-05-30T12:51:15.714Z,24.22
2017-05-30T12:52:17.197Z,24.26
2017-05-30T12:53:18.669Z,24.69
2017-05-30T12:54:20.160Z,24.69
2017-05-30T12:55:21.646Z,24.61
2017-05-30T12:56:23.168Z,24.44
2017-05-30T12:57:24.631Z,24.42
2017-05-30T12:58:26.190Z,24.24
2017-05-30T12:59:27.655Z,24.04
2017-05-30T13:00:29.123Z,23.75
2017-05-30T13:01:30.605Z,23.67
2017-05-30T13:02:32.283Z,23.67
2017-05-30T13:03:33.490Z,23.49
2017-05-30T13:04:34.954Z,23.26
2017-05-30T13:05:36.430Z,22.94
2017-05-30T13:06:37.900Z,22.56
2017-05-30T13:07:39.382Z,22.38
2017-05-30T13:08:40.850Z,22.14
2017-05-30T13:09:42.333Z,21.81
2017-05-30T13:10:43.801Z,21.74
2017-05-30T13:11:45.277Z,21.59
2017-05-30T13:12:46.744Z,21.44